Time;durP1;ratioP1;P1;durP2;ratioP2;P2;SDS_P1;SDS_P2;PMS_P1;PMS_P2;Temp;Humidity;BMP_temperature;BMP_pressure;BME280_temperature;BME280_humidity;BME280_pressure;Samples;Min_cycle;Max_cycle;Signal;HPM_P1;HPM_P2
2023/12/19 00:01:46;;;;;;;36.88;19.05;;;;;;;;;;4792907;29;20501;-94
2023/12/19 00:04:13;;;;;;;34.88;17.85;;;;;;;;;;4776046;29;20055;-95
2023/12/19 00:06:39;;;;;;;31.35;17.88;;;;;;;;;;4756726;30;20063;-94
2023/12/19 00:09:05;;;;;;;36.33;19.35;;;;;;;;;;4767847;29;20059;-94
2023/12/19 00:11:33;;;;;;;34.17;17.20;;;;;;;;;;4784502;29;20052;-96
2023/12/19 00:14:00;;;;;;;27.45;17.50;;;;;;;;;;4775795;29;20054;-96
2023/12/19 00:16:28;;;;;;;38.13;20.77;;;;;;;;;;4776987;30;20497;-93
2023/12/19 00:18:54;;;;;;;42.63;22.27;;;;;;;;;;4779786;29;20047;-96
2023/12/19 00:21:28;;;;;;;33.33;17.88;;;;;;;;;;4776227;29;20079;-95
2023/12/19 00:23:54;;;;;;;29.52;19.02;;;;;;;;;;4769150;30;20074;-95
2023/12/19 00:26:21;;;;;;;32.45;17.95;;;;;;;;;;4772268;30;20052;-92
2023/12/19 00:28:47;;;;;;;28.83;15.73;;;;;;;;;;4770815;30;20102;-93
2023/12/19 00:31:23;;;;;;;28.13;16.98;;;;;;;;;;4775393;29;20114;-95
2023/12/19 00:33:49;;;;;;;34.00;18.38;;;;;;;;;;4795828;29;20051;-95
2023/12/19 00:36:21;;;;;;;33.80;19.88;;;;;;;;;;4776549;30;20051;-95
2023/12/19 00:38:48;;;;;;;35.50;18.88;;;;;;;;;;4776054;29;20071;-93
2023/12/19 00:41:14;;;;;;;28.48;16.33;;;;;;;;;;4775085;30;20066;-95
2023/12/19 00:43:44;;;;;;;28.75;17.08;;;;;;;;;;4791170;29;20047;-94
2023/12/19 00:46:10;;;;;;;26.77;15.93;;;;;;;;;;4778345;29;20816;-95
2023/12/19 00:48:37;;;;;;;29.95;16.85;;;;;;;;;;4782040;29;20077;-95
2023/12/19 00:51:03;;;;;;;31.73;18.33;;;;;;;;;;4772528;29;20051;-94
2023/12/19 00:53:30;;;;;;;30.05;17.58;;;;;;;;;;4782414;29;20047;-94
2023/12/19 00:55:59;;;;;;;29.35;16.88;;;;;;;;;;4783169;30;20135;-94
2023/12/19 00:58:25;;;;;;;25.98;17.38;;;;;;;;;;4784196;30;20051;-93
2023/12/19 01:00:51;;;;;;;31.58;17.38;;;;;;;;;;4781944;30;20060;-93
2023/12/19 01:03:19;;;;;;;29.92;17.33;;;;;;;;;;4787158;30;20047;-93
2023/12/19 01:05:51;;;;;;;30.83;16.80;;;;;;;;;;5044674;24;20065;-94
2023/12/19 01:08:38;;;;;;;27.70;16.50;;;;;;;;;;4839567;24;20070;-94
2023/12/19 01:11:45;;;;;;;29.65;16.77;;;8.40;99.90;;;;;;4810224;29;20062;-93
2023/12/19 01:15:07;;;;;;;29.08;16.02;;;;;;;;;;4881967;24;20091;-93
2023/12/19 01:17:34;;;;;;;27.90;15.00;;;;;;;;;;4787610;29;20055;-95
2023/12/19 01:42:17;;;;;;;25.90;13.52;;;;;;;;;;4789541;30;20062;-93
2023/12/19 01:45:24;;;;;;;21.45;14.18;;;8.50;99.90;;;;;;4739568;30;20095;-94
2023/12/19 01:47:59;;;;;;;18.52;12.68;;;;;;;;;;4711795;30;20153;-96
2023/12/19 01:51:11;;;;;;;27.63;13.48;;;;;;;;;;4668010;30;20512;-96
2023/12/19 02:03:41;;;;;;;25.75;12.85;;;;;;;;;;4889906;24;20066;-96
2023/12/19 02:10:08;;;;;;;18.02;11.73;;;;;;;;;;5030697;24;20050;-96
2023/12/19 02:16:00;;;;;;;19.90;12.70;;;;;;;;;;4940627;23;20050;-96
2023/12/19 02:19:07;;;;;;;21.92;13.63;;;;;;;;;;4862342;29;20053;-93
2023/12/19 02:22:13;;;;;;;16.80;10.40;;;;;;;;;;4865701;29;20053;-91
2023/12/19 02:34:39;;;;;;;17.63;10.68;;;;;;;;;;4860627;29;20105;-93
2023/12/19 02:37:25;;;;;;;18.65;11.68;;;;;;;;;;4833408;29;20034;-93
2023/12/19 02:44:00;;;;;;;19.98;10.63;;;;;;;;;;5125813;24;20057;-96
2023/12/19 02:46:32;;;;;;;20.40;13.15;;;;;;;;;;4805791;29;20062;-92
2023/12/19 02:52:04;;;;;;;17.40;10.82;;;;;;;;;;4927640;23;20061;-96
2023/12/19 02:55:08;;;;;;;17.27;10.75;;;8.30;99.90;;;;;;4871966;24;20046;-96
2023/12/19 02:57:49;;;;;;;21.42;12.18;;;;;;;;;;4808988;29;20057;-96
2023/12/19 03:03:29;;;;;;;;;;;8.30;99.90;;;;;;4886716;23;20528;-95
2023/12/19 03:06:44;;;;;;;16.08;10.13;;;;;;;;;;4804889;29;19981;-96
2023/12/19 03:10:07;;;;;;;17.42;11.80;;;;;;;;;;4795396;29;20058;-96
2023/12/19 03:13:12;;;;;;;18.77;11.57;;;;;;;;;;4827969;29;20163;-96
2023/12/19 03:15:43;;;;;;;18.40;12.15;;;;;;;;;;4751507;30;20047;-96
2023/12/19 03:18:26;;;;;;;19.15;11.93;;;;;;;;;;4811124;24;20047;-96
2023/12/19 03:21:23;;;;;;;19.05;12.35;;;;;;;;;;4801911;24;20066;-93
2023/12/19 03:23:56;;;;;;;21.20;12.65;;;;;;;;;;4796490;30;20067;-95
2023/12/19 03:26:31;;;;;;;21.17;12.60;;;;;;;;;;4758079;30;20058;-95
2023/12/19 03:29:10;;;;;;;18.17;11.57;;;;;;;;;;4776248;30;20115;-96
2023/12/19 03:32:07;;;;;;;16.20;11.13;;;;;;;;;;4758518;30;20055;-96
2023/12/19 03:47:15;;;;;;;17.67;11.30;;;8.20;99.90;;;;;;4946954;24;20046;-94
2023/12/19 04:15:30;;;;;;;13.00;8.38;;;;;;;;;;4804998;29;20114;-96
2023/12/19 04:18:28;;;;;;;11.20;7.32;;;;;;;;;;4809143;29;20051;-95
2023/12/19 04:34:58;;;;;;;11.02;6.82;;;;;;;;;;4837662;29;20042;-96
2023/12/19 04:37:47;;;;;;;10.55;7.50;;;;;;;;;;4818284;29;20054;-96
2023/12/19 04:40:26;;;;;;;10.05;6.68;;;;;;;;;;4800444;29;20054;-96
2023/12/19 04:42:58;;;;;;;9.68;6.82;;;;;;;;;;4788953;29;20046;-96
2023/12/19 04:45:25;;;;;;;8.52;6.13;;;;;;;;;;4802497;29;20054;-95
2023/12/19 04:47:57;;;;;;;9.23;6.30;;;;;;;;;;4805216;29;20081;-96
2023/12/19 04:50:26;;;;;;;7.80;5.60;;;;;;;;;;4806814;29;20054;-95
2023/12/19 04:52:56;;;;;;;9.00;6.75;;;;;;;;;;4806530;29;20141;-96
2023/12/19 04:55:27;;;;;;;11.35;6.40;;;;;;;;;;4805367;29;20141;-96
2023/12/19 05:01:06;;;;;;;7.78;6.13;;;;;;;;;;4819093;29;20075;-95
2023/12/19 05:03:41;;;;;;;7.88;5.85;;;;;;;;;;4791272;29;20043;-96
2023/12/19 05:06:19;;;;;;;7.30;5.50;;;;;;;;;;4822330;29;20055;-96
2023/12/19 05:08:49;;;;;;;8.35;6.75;;;;;;;;;;4804090;29;20051;-96
2023/12/19 05:17:58;;;;;;;6.28;4.20;;;;;;;;;;5102580;23;20009;-96
2023/12/19 05:32:41;;;;;;;8.50;5.03;;;;;;;;;;5003967;24;20044;-96
2023/12/19 05:35:39;;;;;;;7.00;4.82;;;;;;;;;;4853130;29;20033;-96
2023/12/19 05:38:19;;;;;;;8.35;5.65;;;;;;;;;;5088667;23;20041;-96
2023/12/19 05:41:14;;;;;;;6.50;5.60;;;;;;;;;;4810098;29;20079;-96
2023/12/19 05:43:53;;;;;;;6.32;4.53;;;;;;;;;;4780394;30;20055;-96
2023/12/19 05:46:24;;;;;;;8.30;5.28;;;;;;;;;;4789985;24;20115;-96
2023/12/19 05:52:38;;;;;;;5.93;4.70;;;;;;;;;;4823543;29;20045;-96
2023/12/19 05:59:29;;;;;;;6.95;4.63;;;8.40;99.90;;;;;;4827828;29;20056;-96
2023/12/19 06:28:56;;;;;;;7.30;4.88;;;;;;;;;;4791919;30;20085;-96
2023/12/19 06:53:42;;;;;;;8.60;5.90;;;;;;;;;;4913254;23;20499;-96
2023/12/19 06:56:10;;;;;;;8.98;5.45;;;;;;;;;;4814172;29;20046;-96
2023/12/19 06:58:44;;;;;;;8.98;6.55;;;;;;;;;;4809494;29;20050;-95
2023/12/19 07:01:18;;;;;;;9.52;6.68;;;;;;;;;;4828420;29;20092;-96
2023/12/19 07:03:49;;;;;;;9.15;6.35;;;;;;;;;;4803123;29;20059;-96
2023/12/19 07:06:33;;;;;;;8.77;6.45;;;;;;;;;;4823206;29;20054;-96
2023/12/19 07:09:01;;;;;;;9.38;5.55;;;;;;;;;;4822082;29;20042;-96
2023/12/19 07:11:29;;;;;;;8.05;5.60;;;;;;;;;;4802039;29;20043;-96
2023/12/19 07:13:56;;;;;;;7.78;6.13;;;;;;;;;;4815649;29;20058;-96
2023/12/19 07:16:27;;;;;;;8.80;5.95;;;;;;;;;;4815737;29;20045;-95
2023/12/19 07:18:53;;;;;;;6.90;5.43;;;;;;;;;;4836191;29;20061;-92
2023/12/19 07:21:23;;;;;;;8.32;6.07;;;;;;;;;;4817747;29;20057;-96
2023/12/19 07:23:52;;;;;;;7.68;5.53;;;;;;;;;;4814321;29;20054;-95
2023/12/19 07:26:28;;;;;;;7.55;4.90;;;;;;;;;;4805119;29;20050;-96
2023/12/19 07:28:57;;;;;;;6.90;4.93;;;;;;;;;;4815034;29;20579;-94
2023/12/19 07:31:23;;;;;;;8.57;4.93;;;;;;;;;;4809819;29;20062;-96
2023/12/19 07:33:51;;;;;;;6.78;4.70;;;;;;;;;;4813427;29;20054;-96
2023/12/19 07:36:17;;;;;;;4.95;3.80;;;;;;;;;;4824081;29;20084;-96
2023/12/19 07:38:52;;;;;;;5.50;3.80;;;;;;;;;;4818794;29;20068;-96
2023/12/19 07:41:27;;;;;;;4.85;4.15;;;;;;;;;;4816176;29;20042;-96
2023/12/19 07:43:54;;;;;;;5.55;4.28;;;;;;;;;;4805408;24;20128;-95
2023/12/19 07:46:23;;;;;;;6.88;4.20;;;;;;;;;;4791765;29;20145;-95
2023/12/19 07:48:50;;;;;;;4.68;4.18;;;;;;;;;;4789729;29;20183;-96
2023/12/19 07:51:24;;;;;;;7.07;4.38;;;;;;;;;;4812592;29;20046;-96
2023/12/19 07:53:54;;;;;;;5.03;4.10;;;;;;;;;;4803347;29;20059;-96
2023/12/19 07:56:20;;;;;;;5.32;3.67;;;;;;;;;;4806792;29;20050;-96
2023/12/19 07:58:47;;;;;;;4.65;3.45;;;;;;;;;;4803548;29;20085;-96
2023/12/19 08:01:31;;;;;;;5.93;3.75;;;;;;;;;;4812867;29;20046;-96
2023/12/19 08:07:31;;;;;;;4.60;3.60;;;;;;;;;;4828634;24;20043;-96
2023/12/19 08:10:03;;;;;;;5.13;3.90;;;;;;;;;;4779878;29;20099;-94
2023/12/19 08:12:30;;;;;;;5.22;4.13;;;;;;;;;;4772550;29;20058;-95
2023/12/19 08:14:56;;;;;;;5.07;3.90;;;;;;;;;;4774239;29;20124;-96
2023/12/19 08:17:22;;;;;;;4.85;3.22;;;;;;;;;;4755810;29;20112;-95
2023/12/19 08:19:49;;;;;;;3.90;3.15;;;;;;;;;;4769887;29;20173;-94
2023/12/19 08:22:15;;;;;;;4.03;3.63;;;;;;;;;;4757512;29;20051;-96
2023/12/19 08:24:44;;;;;;;4.43;3.55;;;;;;;;;;4790798;24;20050;-96
2023/12/19 08:27:13;;;;;;;7.05;4.05;;;;;;;;;;4778675;29;20058;-96
2023/12/19 08:29:39;;;;;;;6.15;4.45;;;;;;;;;;4766638;29;20051;-96
2023/12/19 08:32:07;;;;;;;5.32;4.47;;;;;;;;;;4767394;29;20131;-96
2023/12/19 08:34:36;;;;;;;6.10;5.10;;;;;;;;;;4778607;29;20884;-95
2023/12/19 08:37:03;;;;;;;8.32;4.97;;;;;;;;;;4777201;29;20043;-96
2023/12/19 08:39:29;;;;;;;7.57;5.47;;;;;;;;;;4777125;29;20088;-96
2023/12/19 08:41:57;;;;;;;7.32;5.20;;;;;;;;;;4776922;29;20054;-96
2023/12/19 08:44:29;;;;;;;7.15;5.10;;;;;;;;;;4761343;29;20050;-96
2023/12/19 08:46:55;;;;;;;7.45;5.22;;;;;;;;;;4774892;29;20058;-96
2023/12/19 08:49:22;;;;;;;8.00;5.97;;;;;;;;;;4763406;29;20063;-96
2023/12/19 08:51:48;;;;;;;7.63;6.00;;;;;;;;;;4774296;29;20043;-96
2023/12/19 08:54:16;;;;;;;8.88;6.22;;;;;;;;;;4779402;29;20046;-96
2023/12/19 08:57:06;;;;;;;8.33;6.90;;;;;;;;;;4766278;29;20157;-96
2023/12/19 08:59:47;;;;;;;10.52;6.80;;;;;;;;;;4776794;29;20055;-96
2023/12/19 09:02:43;;;;;;;8.93;6.75;;;;;;;;;;4822347;24;20050;-96
2023/12/19 09:05:24;;;;;;;11.45;6.90;;;;;;;;;;4795251;29;20054;-95
2023/12/19 09:07:56;;;;;;;9.27;6.65;;;;;;;;;;4836124;23;20799;-96
2023/12/19 09:10:47;;;;;;;10.50;6.68;;;;;;;;;;5028181;23;20062;-96
2023/12/19 09:13:16;;;;;;;7.35;5.90;;;;;;;;;;4861623;24;20049;-94
2023/12/19 09:15:48;;;;;;;10.07;7.20;;;;;;;;;;4812281;29;20124;-96
2023/12/19 09:18:14;;;;;;;10.80;7.63;;;;;;;;;;4811947;29;20054;-96
2023/12/19 09:20:40;;;;;;;9.90;6.65;;;;;;;;;;4811849;29;20050;-95
2023/12/19 09:23:07;;;;;;;10.27;7.30;;;;;;;;;;4815069;29;20052;-95
2023/12/19 09:25:33;;;;;;;10.63;7.15;;;;;;;;;;4823038;29;20046;-94
2023/12/19 09:27:59;;;;;;;11.60;7.75;;;;;;;;;;4803595;29;20058;-96
2023/12/19 09:34:24;;;;;;;9.02;6.93;;;;;;;;;;5069434;24;20064;-96
2023/12/19 09:37:23;;;;;;;8.77;6.15;;;;;;;;;;4876957;23;20069;-95
2023/12/19 09:39:52;;;;;;;8.82;6.45;;;;;;;;;;4827409;29;20050;-95
2023/12/19 09:42:19;;;;;;;7.97;6.47;;;;;;;;;;4811242;29;20058;-95
2023/12/19 09:44:48;;;;;;;8.55;5.75;;;;;;;;;;4811280;29;20050;-96
2023/12/19 09:47:23;;;;;;;9.57;6.13;;;;;;;;;;4811285;29;20061;-95
2023/12/19 09:49:51;;;;;;;9.88;6.38;;;;;;;;;;4811364;29;20136;-95
2023/12/19 09:52:18;;;;;;;7.90;6.38;;;;;;;;;;4811198;29;20057;-95
2023/12/19 09:54:45;;;;;;;7.47;5.88;;;;;;;;;;4796555;29;20054;-94
2023/12/19 09:57:23;;;;;;;6.82;5.97;;;;;;;;;;4812085;29;20107;-95
2023/12/19 09:59:52;;;;;;;6.00;5.22;;;;;;;;;;4811551;29;20058;-94
2023/12/19 10:02:18;;;;;;;8.25;6.20;;;;;;;;;;4814506;29;20100;-95
2023/12/19 10:04:47;;;;;;;8.48;5.28;;;;;;;;;;4830010;29;20142;-94
2023/12/19 10:07:14;;;;;;;8.82;5.43;;;;;;;;;;4802299;29;20058;-95
2023/12/19 10:09:54;;;;;;;8.30;5.40;;;;;;;;;;4796173;29;20137;-94
2023/12/19 10:12:21;;;;;;;11.70;5.60;;;;;;;;;;4796789;29;20141;-94
2023/12/19 10:14:47;;;;;;;8.23;5.65;;;;;;;;;;4821563;29;20072;-95
2023/12/19 10:17:17;;;;;;;7.35;5.40;;;;;;;;;;4815287;29;20046;-94
2023/12/19 10:19:44;;;;;;;7.28;5.22;;;;;;;;;;4815232;29;20552;-95
2023/12/19 10:22:12;;;;;;;7.25;5.72;;;;;;;;;;4814621;29;20061;-95
2023/12/19 10:24:38;;;;;;;7.70;5.63;;;;;;;;;;4814430;29;20055;-94
2023/12/19 10:27:08;;;;;;;8.90;5.72;;;;;;;;;;4814871;29;20050;-94
2023/12/19 10:29:36;;;;;;;8.30;4.80;;;;;;;;;;4814636;29;20056;-94
2023/12/19 10:32:16;;;;;;;11.00;6.38;;;;;;;;;;4814579;29;20054;-95
2023/12/19 10:34:43;;;;;;;8.40;5.90;;;;;;;;;;4814662;29;20149;-94
2023/12/19 10:37:10;;;;;;;7.28;5.53;;;;;;;;;;4814241;29;20049;-95
2023/12/19 10:39:36;;;;;;;6.57;4.97;;;;;;;;;;4797687;29;20054;-94
2023/12/19 10:42:07;;;;;;;9.68;5.75;;;;;;;;;;4800508;29;20053;-95
2023/12/19 10:44:33;;;;;;;7.55;5.53;;;;;;;;;;4814277;29;20149;-95
2023/12/19 10:47:05;;;;;;;10.05;6.32;;;;;;;;;;4814179;29;20072;-94
2023/12/19 10:49:31;;;;;;;7.85;6.03;;;;;;;;;;4813905;29;20077;-96
2023/12/19 10:51:57;;;;;;;8.07;5.95;;;;;;;;;;4809779;29;20054;-94
2023/12/19 10:54:25;;;;;;;7.55;5.55;;;;;;;;;;4795884;29;20058;-96
2023/12/19 10:57:17;;;;;;;7.75;6.20;;;9.60;99.90;;;;;;4795963;29;20504;-94
2023/12/19 10:59:54;;;;;;;9.13;6.70;;;;;;;;;;4796298;29;20062;-95
2023/12/19 11:02:34;;;;;;;10.38;6.43;;;;;;;;;;4796110;29;20050;-95
2023/12/19 11:05:23;;;;;;;7.97;5.80;;;;;;;;;;4809327;29;20065;-96
2023/12/19 11:07:50;;;;;;;11.68;5.68;;;;;;;;;;4812747;29;20097;-93
2023/12/19 11:10:18;;;;;;;9.45;6.50;;;;;;;;;;4790187;24;20602;-95
2023/12/19 11:12:50;;;;;;;10.57;5.80;;;;;;;;;;4775086;30;20577;-96
2023/12/19 11:15:18;;;;;;;9.63;6.75;;;;;;;;;;5072903;24;20141;-95
2023/12/19 11:18:26;;;;;;;8.63;6.10;;;9.70;99.90;;;;;;4847237;29;20046;-93
2023/12/19 11:21:09;;;;;;;;;;;;;;;;;;4846175;29;20071;-96
2023/12/19 11:27:25;;;;;;;9.88;6.80;;;;;;;;;;4834248;29;20046;-96
2023/12/19 11:29:57;;;;;;;10.07;7.35;;;;;;;;;;4824122;29;20077;-95
2023/12/19 11:32:29;;;;;;;13.27;7.35;;;;;;;;;;4840357;29;20050;-96
2023/12/19 11:35:12;;;;;;;11.18;7.07;;;;;;;;;;4822444;29;20068;-96
2023/12/19 11:37:45;;;;;;;9.88;6.75;;;;;;;;;;4803791;29;20054;-95
2023/12/19 11:40:47;;;;;;;9.52;7.18;;;9.80;99.90;;;;;;4816029;29;20054;-96
2023/12/19 11:43:30;;;;;;;11.45;8.18;;;;;;;;;;4828641;29;20077;-95
2023/12/19 11:46:11;;;;;;;11.30;7.80;;;;;;;;;;4836565;29;20064;-96
2023/12/19 11:48:38;;;;;;;8.20;6.75;;;;;;;;;;4835931;29;20049;-96
2023/12/19 11:51:07;;;;;;;8.27;6.43;;;;;;;;;;4835998;29;20075;-96
2023/12/19 11:53:34;;;;;;;8.85;5.88;;;;;;;;;;4824459;29;20118;-96
2023/12/19 11:56:05;;;;;;;8.65;6.15;;;;;;;;;;4818150;29;20145;-95
2023/12/19 11:58:32;;;;;;;7.82;5.75;;;;;;;;;;4817601;29;20050;-96
2023/12/19 12:00:58;;;;;;;7.18;5.38;;;;;;;;;;4816167;29;20086;-96
2023/12/19 12:03:25;;;;;;;6.28;5.25;;;;;;;;;;4817768;29;20054;-95
2023/12/19 12:05:51;;;;;;;6.30;5.35;;;;;;;;;;4818958;29;20058;-96
2023/12/19 12:08:19;;;;;;;6.93;5.13;;;;;;;;;;4815326;29;20489;-95
2023/12/19 12:10:57;;;;;;;6.05;4.45;;;;;;;;;;4809699;29;20496;-94
2023/12/19 12:13:24;;;;;;;11.77;5.50;;;;;;;;;;4809043;29;20054;-95
2023/12/19 12:15:52;;;;;;;9.45;5.43;;;;;;;;;;4794205;29;20062;-95
2023/12/19 12:18:19;;;;;;;6.97;4.60;;;;;;;;;;4809206;29;20484;-94
2023/12/19 12:20:45;;;;;;;7.93;5.80;;;;;;;;;;4786444;29;20054;-95
2023/12/19 12:23:11;;;;;;;6.65;5.45;;;;;;;;;;4791713;29;20062;-95
2023/12/19 12:25:38;;;;;;;7.78;5.35;;;;;;;;;;4791159;29;20058;-95
2023/12/19 12:28:08;;;;;;;6.13;5.28;;;;;;;;;;4790934;29;20098;-94
2023/12/19 12:30:34;;;;;;;5.45;4.32;;;;;;;;;;4791089;29;20054;-95
2023/12/19 12:33:02;;;;;;;8.60;4.63;;;;;;;;;;4790921;29;20520;-94
2023/12/19 12:35:30;;;;;;;6.15;4.55;;;;;;;;;;4790962;29;20111;-95
2023/12/19 12:38:00;;;;;;;7.28;4.70;;;;;;;;;;4806788;29;20528;-94
2023/12/19 12:40:26;;;;;;;6.15;4.75;;;;;;;;;;4809320;29;20097;-94
2023/12/19 12:42:52;;;;;;;7.20;5.40;;;;;;;;;;4794277;29;20057;-94
2023/12/19 12:45:19;;;;;;;6.45;4.65;;;;;;;;;;4797231;29;20144;-95
2023/12/19 12:47:45;;;;;;;7.38;4.43;;;;;;;;;;4776475;29;20540;-94
2023/12/19 12:50:11;;;;;;;7.85;4.75;;;;;;;;;;4808320;29;20054;-95
2023/12/19 12:52:40;;;;;;;7.18;3.95;;;;;;;;;;4809315;29;20194;-95
2023/12/19 12:55:10;;;;;;;9.07;4.80;;;;;;;;;;4809261;29;20058;-95
2023/12/19 12:57:36;;;;;;;6.65;4.53;;;;;;;;;;4808947;29;20508;-94
2023/12/19 13:00:03;;;;;;;7.45;4.38;;;;;;;;;;4807903;29;20058;-95
2023/12/19 13:02:29;;;;;;;7.78;5.05;;;;;;;;;;4777016;29;20489;-93
2023/12/19 13:04:55;;;;;;;3.90;3.28;;;;;;;;;;4790725;29;20065;-94
2023/12/19 13:07:22;;;;;;;4.63;3.53;;;;;;;;;;4791592;29;20142;-95
2023/12/19 13:09:48;;;;;;;6.93;4.00;;;;;;;;;;4793499;29;20050;-96
2023/12/19 13:12:14;;;;;;;5.32;3.85;;;;;;;;;;4794080;29;20092;-95
2023/12/19 13:14:40;;;;;;;6.18;3.90;;;;;;;;;;4796665;29;20062;-96
2023/12/19 13:17:07;;;;;;;4.95;3.90;;;;;;;;;;4790748;29;20057;-94
2023/12/19 13:19:35;;;;;;;5.25;4.45;;;;;;;;;;4791924;29;20090;-95
2023/12/19 13:22:04;;;;;;;4.72;3.70;;;;;;;;;;4776285;29;20141;-95
2023/12/19 13:24:32;;;;;;;4.97;3.40;;;;;;;;;;4790898;29;20149;-94
2023/12/19 13:26:58;;;;;;;4.68;3.50;;;;;;;;;;4796651;29;20505;-95
2023/12/19 13:29:24;;;;;;;6.32;3.53;;;;;;;;;;4775960;29;20067;-95
2023/12/19 13:31:51;;;;;;;4.03;3.47;;;;;;;;;;4808677;29;20050;-94
2023/12/19 13:34:17;;;;;;;5.25;3.33;;;;;;;;;;4802283;29;20046;-95
2023/12/19 13:36:45;;;;;;;3.78;2.95;;;;;;;;;;4792599;29;20142;-96
2023/12/19 13:39:12;;;;;;;3.92;3.03;;;;;;;;;;4791217;29;20415;-95
2023/12/19 13:41:38;;;;;;;3.10;2.45;;;;;;;;;;4804520;29;20480;-95
2023/12/19 13:44:04;;;;;;;8.32;3.13;;;;;;;;;;4800065;29;20138;-95
2023/12/19 13:46:30;;;;;;;4.05;2.85;;;;;;;;;;4805164;29;20062;-95
2023/12/19 13:48:56;;;;;;;3.15;2.55;;;;;;;;;;4796884;29;20061;-95
2023/12/19 13:51:22;;;;;;;4.10;2.05;;;;;;;;;;4810900;29;20114;-96
2023/12/19 13:53:48;;;;;;;2.55;1.70;;;;;;;;;;4797079;29;20088;-93
2023/12/19 13:56:15;;;;;;;2.95;1.75;;;;;;;;;;4812485;29;20149;-96
2023/12/19 13:58:41;;;;;;;2.13;1.63;;;;;;;;;;4812064;29;20055;-96
2023/12/19 14:01:08;;;;;;;2.20;2.00;;;;;;;;;;4796629;29;20078;-95
2023/12/19 14:03:34;;;;;;;1.60;1.45;;;;;;;;;;4807236;29;20066;-95
2023/12/19 14:06:00;;;;;;;2.72;2.05;;;;;;;;;;4800591;29;20051;-96
2023/12/19 14:08:27;;;;;;;2.08;1.83;;;;;;;;;;4796471;29;20126;-95
2023/12/19 14:10:54;;;;;;;2.33;1.40;;;;;;;;;;4796445;29;20142;-96
2023/12/19 14:13:20;;;;;;;3.17;1.70;;;;;;;;;;4811161;29;20497;-96
2023/12/19 14:15:53;;;;;;;2.95;1.88;;;;;;;;;;4794355;29;20535;-96
2023/12/19 14:18:19;;;;;;;2.30;1.80;;;;;;;;;;4779123;29;20108;-96
2023/12/19 14:20:45;;;;;;;2.45;2.08;;;;;;;;;;4794993;29;20211;-96
2023/12/19 14:23:11;;;;;;;2.78;2.58;;;;;;;;;;4791957;30;20051;-96
2023/12/19 14:25:38;;;;;;;1.50;1.40;;;;;;;;;;4777542;30;20063;-96
2023/12/19 14:28:06;;;;;;;1.60;1.50;;;;;;;;;;4778421;30;20055;-96
2023/12/19 14:30:32;;;;;;;1.95;1.60;;;;;;;;;;4777570;30;20421;-96
2023/12/19 14:32:59;;;;;;;3.47;2.30;;;;;;;;;;4778423;30;20512;-96
2023/12/19 14:35:25;;;;;;;2.25;1.88;;;;;;;;;;4789001;29;20098;-96
2023/12/19 14:40:17;;;;;;;2.47;1.90;;;;;;;;;;4812997;23;20058;-96
2023/12/19 14:42:43;;;;;;;3.55;2.20;;;;;;;;;;4780487;29;20054;-96
2023/12/19 14:45:12;;;;;;;2.63;2.35;;;;;;;;;;4795845;29;20066;-95
2023/12/19 14:47:39;;;;;;;5.05;3.17;;;;;;;;;;4781650;29;20084;-96
2023/12/19 14:50:05;;;;;;;6.07;2.75;;;;;;;;;;4780893;29;20063;-93
2023/12/19 14:52:33;;;;;;;3.85;2.70;;;;;;;;;;4781588;29;20062;-95
2023/12/19 14:54:59;;;;;;;3.47;3.00;;;;;;;;;;4781729;29;20054;-96
2023/12/19 14:57:31;;;;;;;6.03;3.03;;;;;;;;;;4768158;29;20201;-96
2023/12/19 14:59:57;;;;;;;7.90;2.80;;;;;;;;;;4781338;29;20573;-94
2023/12/19 15:02:25;;;;;;;2.95;2.47;;;;;;;;;;4767392;29;20179;-96
2023/12/19 15:04:51;;;;;;;6.82;2.80;;;;;;;;;;4780946;29;20047;-96
2023/12/19 15:07:17;;;;;;;4.97;3.45;;;;;;;;;;4767632;29;20063;-96
2023/12/19 15:09:44;;;;;;;7.63;3.30;;;;;;;;;;4789920;29;20061;-95
2023/12/19 15:12:10;;;;;;;5.03;2.60;;;;;;;;;;4780150;29;20103;-96
2023/12/19 15:14:48;;;;;;;5.40;2.83;;;;;;;;;;4778605;29;20054;-92
2023/12/19 15:17:14;;;;;;;4.70;2.78;;;;;;;;;;4774939;29;20093;-96
2023/12/19 15:19:44;;;;;;;3.92;3.10;;;;;;;;;;4799018;29;20139;-96
2023/12/19 15:22:10;;;;;;;4.35;3.22;;;;;;;;;;4786405;29;20109;-96
2023/12/19 15:24:36;;;;;;;7.57;4.00;;;;;;;;;;4803556;29;20080;-96
2023/12/19 15:27:03;;;;;;;6.38;3.85;;;;;;;;;;4803587;29;20054;-95
2023/12/19 15:29:30;;;;;;;5.97;3.80;;;;;;;;;;4785252;29;20063;-96
2023/12/19 15:32:19;;;;;;;5.32;4.10;;;9.30;99.90;;;;;;4782268;29;20055;-96
2023/12/19 15:34:45;;;;;;;7.60;4.20;;;;;;;;;;4864919;24;20112;-93
2023/12/19 15:37:11;;;;;;;7.00;4.03;;;;;;;;;;4771922;29;20055;-95
2023/12/19 15:39:37;;;;;;;7.50;4.47;;;;;;;;;;4760582;29;20046;-95
2023/12/19 15:42:05;;;;;;;6.80;3.67;;;;;;;;;;4779200;29;20061;-94
2023/12/19 15:44:31;;;;;;;9.80;4.45;;;;;;;;;;4757112;30;20142;-94
2023/12/19 15:46:57;;;;;;;10.32;4.90;;;;;;;;;;4776394;29;20059;-94
2023/12/19 15:49:23;;;;;;;11.68;3.95;;;;;;;;;;4786927;29;20055;-95
2023/12/19 15:51:49;;;;;;;6.30;4.45;;;;;;;;;;4800591;29;20119;-93
2023/12/19 15:54:16;;;;;;;4.93;3.05;;;;;;;;;;4791734;29;20046;-94
2023/12/19 15:56:44;;;;;;;9.55;3.83;;;;;;;;;;4764647;29;20056;-95
2023/12/19 15:59:10;;;;;;;8.52;3.63;;;;;;;;;;4758316;29;20509;-94
2023/12/19 16:01:37;;;;;;;10.88;3.47;;;;;;;;;;4764704;29;20055;-95
2023/12/19 16:04:03;;;;;;;8.40;4.13;;;;;;;;;;4762075;30;20059;-96
2023/12/19 16:06:30;;;;;;;9.43;4.15;;;;;;;;;;4750382;29;20057;-95
2023/12/19 16:08:56;;;;;;;7.68;3.28;;;;;;;;;;4787478;29;20051;-96
2023/12/19 16:11:26;;;;;;;9.27;4.38;;;;;;;;;;4782774;29;20085;-95
2023/12/19 16:13:52;;;;;;;5.95;3.95;;;;;;;;;;4768731;30;20059;-95
2023/12/19 16:16:18;;;;;;;8.65;4.07;;;;;;;;;;4780989;29;20126;-96
2023/12/19 16:18:55;;;;;;;12.30;4.10;;;;;;;;;;4773147;29;20138;-96
2023/12/19 16:21:28;;;;;;;8.60;4.57;;;;;;;;;;4784933;29;20048;-96
2023/12/19 16:23:56;;;;;;;7.20;4.25;;;;;;;;;;4794451;29;20051;-95
2023/12/19 16:26:22;;;;;;;7.03;3.88;;;;;;;;;;4768563;30;20047;-96
2023/12/19 16:28:50;;;;;;;6.65;3.95;;;;;;;;;;4772431;30;20139;-95
2023/12/19 16:31:20;;;;;;;6.97;3.92;;;;;;;;;;4778560;29;20062;-96
2023/12/19 16:33:49;;;;;;;7.15;3.38;;;;;;;;;;4790477;29;20051;-95
2023/12/19 16:36:18;;;;;;;10.70;3.33;;;;;;;;;;4750758;30;20599;-96
2023/12/19 16:38:44;;;;;;;8.15;2.92;;;;;;;;;;4738623;30;20067;-96
2023/12/19 16:41:18;;;;;;;7.13;3.55;;;;;;;;;;4725169;30;20059;-95
2023/12/19 16:43:55;;;;;;;11.98;4.55;;;;;;;;;;4756728;30;20060;-96
2023/12/19 16:46:24;;;;;;;8.73;3.40;;;;;;;;;;4717408;30;20120;-95
2023/12/19 16:48:54;;;;;;;9.02;3.63;;;;;;;;;;4755462;30;20073;-95
2023/12/19 16:51:20;;;;;;;6.07;3.40;;;;;;;;;;4740419;30;20044;-96
2023/12/19 16:53:53;;;;;;;4.85;3.00;;;;;;;;;;4766947;30;20052;-96
2023/12/19 16:56:19;;;;;;;13.15;3.22;;;;;;;;;;4751968;30;20060;-96
2023/12/19 16:58:46;;;;;;;8.15;3.28;;;;;;;;;;4763304;30;20117;-95
2023/12/19 17:01:22;;;;;;;8.93;2.63;;;;;;;;;;4750849;30;20060;-96
2023/12/19 17:03:49;;;;;;;12.20;1.92;;;;;;;;;;4738298;30;20066;-95
2023/12/19 17:06:16;;;;;;;11.32;2.10;;;;;;;;;;4741286;29;20067;-93
2023/12/19 17:08:44;;;;;;;5.70;1.40;;;;;;;;;;4809912;29;20061;-96
2023/12/19 17:11:20;;;;;;;3.42;1.60;;;;;;;;;;4779690;30;20143;-95
2023/12/19 17:18:52;;;;;;;6.85;1.75;;;;;;;;;;4857781;29;20057;-96
2023/12/19 17:21:20;;;;;;;6.32;1.48;;;;;;;;;;4850821;29;20485;-94
2023/12/19 17:23:46;;;;;;;5.32;1.45;;;;;;;;;;4834000;29;20054;-90
2023/12/19 17:26:12;;;;;;;9.02;1.67;;;;;;;;;;4823634;29;20049;-95
2023/12/19 17:28:38;;;;;;;6.10;1.50;;;;;;;;;;4825705;29;20145;-95
2023/12/19 17:31:05;;;;;;;9.43;1.48;;;;;;;;;;4820881;29;20245;-92
2023/12/19 17:33:31;;;;;;;3.05;1.15;;;;;;;;;;4803685;29;20050;-94
2023/12/19 17:35:57;;;;;;;6.35;1.75;;;;;;;;;;4839435;29;20517;-92
2023/12/19 17:38:23;;;;;;;7.97;2.47;;;;;;;;;;4821967;29;20061;-93
2023/12/19 17:40:50;;;;;;;6.43;1.88;;;;;;;;;;4866671;29;20110;-94
2023/12/19 17:43:24;;;;;;;6.05;2.35;;;;;;;;;;4834983;29;20045;-90
2023/12/19 17:45:50;;;;;;;2.95;1.63;;;;;;;;;;4829923;29;20060;-94
2023/12/19 17:48:17;;;;;;;5.22;1.50;;;;;;;;;;4830595;29;20122;-93
2023/12/19 17:50:43;;;;;;;4.60;1.27;;;;;;;;;;4828863;29;20049;-95
2023/12/19 17:53:09;;;;;;;10.23;1.63;;;;;;;;;;4829482;29;20503;-95
2023/12/19 17:55:35;;;;;;;6.82;2.00;;;;;;;;;;4809305;29;20065;-93
2023/12/19 17:58:01;;;;;;;9.50;1.60;;;;;;;;;;4810435;29;20182;-95
2023/12/19 18:00:28;;;;;;;11.57;1.73;;;;;;;;;;4822515;29;20062;-94
2023/12/19 18:02:54;;;;;;;12.27;1.90;;;;;;;;;;4826183;29;20061;-94
2023/12/19 18:05:20;;;;;;;9.93;1.92;;;;;;;;;;4801995;29;20093;-95
2023/12/19 18:07:46;;;;;;;6.00;1.40;;;;;;;;;;4822904;29;20046;-93
2023/12/19 18:10:13;;;;;;;13.02;2.53;;;;;;;;;;4825714;29;20090;-94
2023/12/19 18:12:39;;;;;;;6.03;1.42;;;;;;;;;;4810981;29;20046;-94
2023/12/19 18:15:05;;;;;;;6.72;2.08;;;;;;;;;;4825350;29;20057;-95
2023/12/19 18:17:31;;;;;;;10.25;2.30;;;;;;;;;;4826950;29;20058;-93
2023/12/19 18:19:57;;;;;;;6.18;2.10;;;;;;;;;;4827443;29;20122;-94
2023/12/19 18:22:24;;;;;;;7.47;1.55;;;;;;;;;;4833845;29;20054;-94
2023/12/19 18:24:50;;;;;;;4.88;1.90;;;;;;;;;;4824456;29;20133;-93
2023/12/19 18:27:16;;;;;;;6.82;1.67;;;;;;;;;;4835830;29;20046;-96